Time;durP1;ratioP1;P1;durP2;ratioP2;P2;SDS_P1;SDS_P2;PMS_P1;PMS_P2;Temp;Humidity;BMP_temperature;BMP_pressure;BME280_temperature;BME280_humidity;BME280_pressure;Samples;Min_cycle;Max_cycle;Signal;HPM_P1;HPM_P2
2022/11/03 00:02:09;;;;;;;4.63;1.20;;;;;;;;;;5040286;28;92168;-56
2022/11/03 00:04:39;;;;;;;1.60;1.03;;;;;;;;;;5040151;28;92870;-56
2022/11/03 00:07:08;;;;;;;2.67;1.60;;;;;;;;;;5023362;28;92168;-56
2022/11/03 00:09:36;;;;;;;2.00;1.33;;;;;;;;;;5032366;28;92205;-56
2022/11/03 00:12:04;;;;;;;3.93;1.33;;;;;;;;;;5032091;28;91381;-56
2022/11/03 00:14:33;;;;;;;6.33;1.80;;;;;;;;;;5032733;28;93981;-58
2022/11/03 00:17:01;;;;;;;2.40;1.23;;;;;;;;;;5028663;28;92986;-55
2022/11/03 00:19:29;;;;;;;2.43;1.63;;;;;;;;;;5039041;28;93063;-56
2022/11/03 00:21:59;;;;;;;5.70;1.63;;;;;;;;;;5039456;28;93844;-56
2022/11/03 00:24:27;;;;;;;6.37;1.40;;;;;;;;;;5038453;28;94663;-55
2022/11/03 00:26:56;;;;;;;1.83;1.13;;;;;;;;;;5039417;28;93856;-56
2022/11/03 00:29:24;;;;;;;2.33;1.30;;;;;;;;;;5039896;28;92129;-56
2022/11/03 00:31:53;;;;;;;1.40;1.17;;;;;;;;;;5040579;28;92713;-55
2022/11/03 00:34:21;;;;;;;2.13;0.90;;;;;;;;;;5038479;28;93161;-56
2022/11/03 00:36:49;;;;;;;2.93;1.20;;;;;;;;;;5040004;28;92630;-55
2022/11/03 00:39:19;;;;;;;2.57;1.57;;;;;;;;;;5027315;28;92174;-56
2022/11/03 00:41:47;;;;;;;1.50;1.20;;;;;;;;;;5025170;28;92154;-55
2022/11/03 00:44:15;;;;;;;2.60;1.73;;;;;;;;;;5019808;28;95203;-55
2022/11/03 00:46:44;;;;;;;4.63;0.73;;;;;;;;;;5019280;28;95221;-56
2022/11/03 00:49:12;;;;;;;1.47;0.83;;;;;;;;;;5021235;28;92034;-56
2022/11/03 00:51:40;;;;;;;3.73;1.17;;;;;;;;;;5022923;28;92051;-55
2022/11/03 00:54:09;;;;;;;2.30;1.07;;;;;;;;;;5031873;28;94226;-55
2022/11/03 00:56:38;;;;;;;2.03;1.40;;;;;;;;;;5039216;28;92587;-55
2022/11/03 00:59:07;;;;;;;2.57;1.10;;;;;;;;;;5029050;28;92097;-56
2022/11/03 01:01:36;;;;;;;1.03;0.57;;;;;;;;;;5038670;28;91376;-56
2022/11/03 01:06:59;;;;;;;4.43;1.43;;;;;;;;;;5038343;28;93944;-56
2022/11/03 01:09:27;;;;;;;3.73;1.50;;;;;;;;;;5039126;28;93150;-56
2022/11/03 01:12:00;;;;;;;0.73;0.60;;;;;;;;;;5039160;28;92086;-56
2022/11/03 01:14:29;;;;;;;1.97;1.13;;;;;;;;;;5038671;28;93115;-56
2022/11/03 01:16:57;;;;;;;1.90;1.03;;;;;;;;;;5027080;28;93891;-55
2022/11/03 01:19:26;;;;;;;2.37;1.03;;;;;;;;;;5018730;28;92074;-56
2022/11/03 01:21:55;;;;;;;2.87;1.10;;;;;;;;;;5018521;28;92196;-55
2022/11/03 01:24:23;;;;;;;1.10;0.90;;;;;;;;;;5027574;28;93268;-55
2022/11/03 01:26:51;;;;;;;3.10;1.07;;;;;;;;;;5038636;28;93731;-55
2022/11/03 01:29:21;;;;;;;1.33;0.80;;;;;;;;;;5038728;28;92281;-56
2022/11/03 01:31:49;;;;;;;1.90;0.83;;;;;;;;;;5038779;28;92055;-55
2022/11/03 01:34:18;;;;;;;1.43;1.10;;;;;;;;;;5036074;28;95106;-55
2022/11/03 01:36:47;;;;;;;1.07;0.93;;;;;;;;;;5017861;28;94965;-56
2022/11/03 01:39:15;;;;;;;3.83;1.03;;;;;;;;;;5025658;28;93506;-55
2022/11/03 01:41:44;;;;;;;0.87;0.70;;;;;;;;;;5028288;28;92075;-56
2022/11/03 01:44:33;;;;;;;3.57;1.17;;;;;;;;;;5019661;28;93068;-56
2022/11/03 01:47:04;;;;;;;1.40;0.73;;;;;;;;;;5019507;28;92836;-56
2022/11/03 01:49:34;;;;;;;2.00;1.20;;;;;;;;;;5038763;28;91966;-55
2022/11/03 01:52:03;;;;;;;1.63;1.10;;;;;;;;;;5038880;28;91467;-56
2022/11/03 01:54:32;;;;;;;3.87;1.20;;;;;;;;;;5028005;28;92894;-55
2022/11/03 01:57:00;;;;;;;1.07;0.87;;;;;;;;;;5018252;28;93899;-55
2022/11/03 01:59:28;;;;;;;4.47;1.20;;;;;;;;;;5026114;28;93111;-55
2022/11/03 02:01:57;;;;;;;1.37;1.07;;;;;;;;;;5038812;28;92086;-55
2022/11/03 02:04:27;;;;;;;1.63;1.00;;;;;;;;;;5035793;28;93944;-55
2022/11/03 02:06:58;;;;;;;5.60;1.73;;;;;;;;;;5037862;28;93902;-56
2022/11/03 02:09:27;;;;;;;1.63;0.70;;;;;;;;;;5038113;28;92103;-56
2022/11/03 02:12:07;;;;;;;0.93;0.63;;;;;;;;;;5038067;28;92140;-55
2022/11/03 02:14:36;;;;;;;1.50;1.20;;;;;;;;;;5036728;28;94277;-55
2022/11/03 02:17:06;;;;;;;1.47;0.70;;;;;;;;;;5038034;28;93686;-55
2022/11/03 02:19:36;;;;;;;0.60;0.53;;;;;;;;;;5038170;28;92135;-56
2022/11/03 02:22:07;;;;;;;4.63;1.37;;;;;;;;;;5037803;28;92115;-56
2022/11/03 02:24:36;;;;;;;1.50;1.10;;;;;;;;;;5035653;28;93991;-55
2022/11/03 02:27:06;;;;;;;1.87;0.83;;;;;;;;;;5038114;28;93657;-55
2022/11/03 02:29:34;;;;;;;1.77;1.17;;;;;;;;;;5029623;28;92030;-57
2022/11/03 02:32:04;;;;;;;2.30;0.90;;;;;;;;;;5017915;28;92781;-57
2022/11/03 02:34:34;;;;;;;1.03;0.83;;;;;;;;;;5025912;28;93998;-56
2022/11/03 02:37:04;;;;;;;2.40;1.27;;;;;;;;;;5025783;28;92687;-55
2022/11/03 02:39:33;;;;;;;4.03;1.47;;;;;;;;;;5036834;28;92189;-55
2022/11/03 02:42:01;;;;;;;2.17;1.13;;;;;;;;;;5034260;28;91306;-55
2022/11/03 02:44:31;;;;;;;1.20;1.00;;;;;;;;;;5022287;28;92135;-56
2022/11/03 02:47:00;;;;;;;3.63;1.43;;;;;;;;;;5023359;28;93813;-55
2022/11/03 02:49:28;;;;;;;1.77;1.30;;;;;;;;;;5029876;28;93042;-56
2022/11/03 02:52:00;;;;;;;1.83;1.00;;;;;;;;;;5036848;28;92219;-55
2022/11/03 02:54:29;;;;;;;1.87;1.07;;;;;;;;;;5021916;28;93943;-55
2022/11/03 02:56:58;;;;;;;1.47;1.17;;;;;;;;;;5030329;28;93817;-57
2022/11/03 02:59:27;;;;;;;3.03;1.10;;;;;;;;;;5025496;28;93163;-55
2022/11/03 03:01:57;;;;;;;4.53;1.20;;;;;;;;;;5025594;28;92095;-57
2022/11/03 03:04:27;;;;;;;3.03;1.47;;;;;;;;;;5016751;28;93304;-56
2022/11/03 03:06:57;;;;;;;2.53;1.60;;;;;;;;;;5031955;28;92345;-56
2022/11/03 03:09:26;;;;;;;1.67;1.27;;;;;;;;;;5029540;28;92041;-55
2022/11/03 03:11:54;;;;;;;1.60;1.13;;;;;;;;;;5024828;28;92094;-56
2022/11/03 03:14:23;;;;;;;1.73;1.30;;;;;;;;;;5035769;28;94238;-56
2022/11/03 03:16:53;;;;;;;1.70;0.90;;;;;;;;;;5035038;28;94060;-55
2022/11/03 03:19:29;;;;;;;1.50;1.10;;;;;;;;;;5040980;28;92177;-55
2022/11/03 03:21:58;;;;;;;2.93;1.57;;;;;;;;;;5041298;28;92095;-56
2022/11/03 03:24:28;;;;;;;2.33;1.43;;;;;;;;;;5040776;28;93092;-56
2022/11/03 03:26:58;;;;;;;2.07;1.30;;;;;;;;;;5040647;28;92939;-56
2022/11/03 03:29:27;;;;;;;1.50;1.33;;;;;;;;;;5039465;28;91921;-57
2022/11/03 03:31:56;;;;;;;2.53;1.43;;;;;;;;;;5033692;28;93055;-55
2022/11/03 03:34:25;;;;;;;1.73;1.23;;;;;;;;;;5020628;28;94238;-56
2022/11/03 03:37:05;;;;;;;2.87;1.50;;;;;;;;;;5036855;28;94669;-56
2022/11/03 03:39:34;;;;;;;3.47;1.50;;;;;;;;;;5030232;28;93016;-55
2022/11/03 03:42:02;;;;;;;2.60;1.40;;;;;;;;;;5025485;28;92055;-56
2022/11/03 03:44:30;;;;;;;1.17;1.00;;;;;;;;;;5039824;28;94149;-55
2022/11/03 03:47:00;;;;;;;1.60;1.00;;;;;;;;;;5040077;28;92073;-55
2022/11/03 03:49:28;;;;;;;1.73;1.20;;;;;;;;;;5040728;27;92015;-53
2022/11/03 03:51:57;;;;;;;7.27;2.77;;;;;;;;;;5033971;28;92031;-54
2022/11/03 03:54:26;;;;;;;21.87;9.60;;;;;;;;;;5020027;28;94230;-54
2022/11/03 03:56:56;;;;;;;32.00;17.80;;;;;;;;;;5020563;28;93096;-54
2022/11/03 03:59:24;;;;;;;39.30;19.93;;;;;;;;;;5019566;28;92078;-55
2022/11/03 04:01:52;;;;;;;29.73;16.33;;;;;;;;;;5024846;28;92158;-54
2022/11/03 04:04:21;;;;;;;27.00;13.93;;;;;;;;;;5038683;28;95009;-56
2022/11/03 04:07:45;;;;;;;21.77;11.60;;;;;;;;;;5034015;28;93657;-55
2022/11/03 04:09:38;;;;;;;16.93;7.20;;;;;;;;;;5025482;28;92152;-54
2022/11/03 04:23:11;;;;;;;11.27;4.50;;;;;;;;;;5040377;28;91317;-55
2022/11/03 04:25:41;;;;;;;7.67;2.80;;;;;;;;;;5039033;27;93266;-55
2022/11/03 04:28:10;;;;;;;5.63;3.03;;;;;;;;;;5029755;28;92812;-55
2022/11/03 04:30:38;;;;;;;5.93;2.63;;;;;;;;;;5033263;28;93044;-55
2022/11/03 04:33:07;;;;;;;10.00;2.40;;;;;;;;;;5029276;28;92113;-55
2022/11/03 04:35:35;;;;;;;3.70;1.50;;;;;;;;;;5032513;28;94059;-55
2022/11/03 04:38:04;;;;;;;3.17;1.70;;;;;;;;;;5034659;28;93946;-54
2022/11/03 04:40:33;;;;;;;1.30;1.20;;;;;;;;;;5019755;28;92157;-54
2022/11/03 04:43:03;;;;;;;2.63;1.40;;;;;;;;;;5039080;28;92113;-54
2022/11/03 04:45:32;;;;;;;4.20;2.03;;;;;;;;;;5038811;28;93133;-55
2022/11/03 04:48:02;;;;;;;3.87;2.07;;;;;;;;;;5039111;28;92517;-55
2022/11/03 04:50:30;;;;;;;3.90;1.47;;;;;;;;;;5039710;28;92071;-55
2022/11/03 04:52:59;;;;;;;1.50;1.20;;;;;;;;;;5039277;28;92122;-55
2022/11/03 04:55:27;;;;;;;1.10;0.90;;;;;;;;;;5038738;28;95194;-55
2022/11/03 04:57:57;;;;;;;2.10;1.43;;;;;;;;;;5038636;28;92689;-55
2022/11/03 05:00:27;;;;;;;4.57;1.83;;;;;;;;;;5039995;28;92122;-55
2022/11/03 05:02:55;;;;;;;2.00;1.53;;;;;;;;;;5039922;28;92021;-55
2022/11/03 05:05:33;;;;;;;6.80;1.07;;;;;;;;;;5038918;28;94173;-55
2022/11/03 05:08:01;;;;;;;4.50;1.37;;;;;;;;;;5037436;28;92853;-55
2022/11/03 05:10:30;;;;;;;3.30;1.17;;;;;;;;;;5038820;28;93086;-55
2022/11/03 05:12:58;;;;;;;1.90;1.00;;;;;;;;;;5038875;28;91373;-55
2022/11/03 05:15:33;;;;;;;1.77;1.23;;;;;;;;;;5021802;28;92158;-54
2022/11/03 05:18:02;;;;;;;1.80;0.87;;;;;;;;;;5028167;28;93997;-55
2022/11/03 05:20:31;;;;;;;2.47;1.20;;;;;;;;;;5038315;28;93039;-54
2022/11/03 05:23:03;;;;;;;1.77;1.00;;;;;;;;;;5039305;28;92016;-55
2022/11/03 05:25:35;;;;;;;2.27;1.17;;;;;;;;;;5038769;28;94036;-55
2022/11/03 05:28:03;;;;;;;0.80;0.80;;;;;;;;;;5038075;28;93858;-55
2022/11/03 05:30:33;;;;;;;1.20;1.10;;;;;;;;;;5039143;28;92088;-55
2022/11/03 05:33:02;;;;;;;1.00;1.00;;;;;;;;;;5039279;28;92085;-55
2022/11/03 05:35:30;;;;;;;5.53;1.30;;;;;;;;;;5038947;28;93250;-54
2022/11/03 05:37:58;;;;;;;1.37;0.83;;;;;;;;;;5037422;28;94061;-55
2022/11/03 05:40:26;;;;;;;3.33;1.37;;;;;;;;;;5038589;28;92110;-54
2022/11/03 05:42:56;;;;;;;3.80;0.80;;;;;;;;;;5029100;28;92175;-55
2022/11/03 05:45:25;;;;;;;2.73;1.40;;;;;;;;;;5021073;28;94831;-55
2022/11/03 05:47:55;;;;;;;0.97;0.97;;;;;;;;;;5038006;28;94929;-54
2022/11/03 05:50:24;;;;;;;1.53;0.90;;;;;;;;;;5023939;28;92159;-54
2022/11/03 05:52:52;;;;;;;2.63;0.77;;;;;;;;;;5019331;28;92013;-54
2022/11/03 05:55:23;;;;;;;2.73;0.90;;;;;;;;;;5018462;28;92907;-55
2022/11/03 05:57:51;;;;;;;1.33;0.60;;;;;;;;;;5025126;28;92736;-54
2022/11/03 06:00:25;;;;;;;1.47;0.77;;;;;;;;;;5026114;28;92229;-55
2022/11/03 06:02:55;;;;;;;1.23;1.10;;;;;;;;;;5019775;28;91375;-54
2022/11/03 06:05:24;;;;;;;3.03;0.93;;;;;;;;;;5025904;28;93197;-53
2022/11/03 06:07:53;;;;;;;1.10;1.00;;;;;;;;;;5038246;28;92542;-55
2022/11/03 06:10:24;;;;;;;0.87;0.63;;;;;;;;;;5038275;28;93040;-55
2022/11/03 06:12:52;;;;;;;4.93;1.70;;;;;;;;;;5037024;28;91952;-55
2022/11/03 06:15:23;;;;;;;2.10;0.80;;;;;;;;;;5037968;28;94230;-55
2022/11/03 06:17:52;;;;;;;1.63;0.87;;;;;;;;;;5037480;28;93648;-55
2022/11/03 06:20:22;;;;;;;1.00;0.73;;;;;;;;;;5017895;28;92104;-55
2022/11/03 06:22:50;;;;;;;1.33;0.70;;;;;;;;;;5018361;28;92298;-55
2022/11/03 06:25:20;;;;;;;2.00;0.90;;;;;;;;;;5017853;28;92969;-55
2022/11/03 06:27:49;;;;;;;1.47;1.20;;;;;;;;;;5030772;28;92585;-55
2022/11/03 06:30:20;;;;;;;0.87;0.80;;;;;;;;;;5038231;28;92138;-55
2022/11/03 06:32:49;;;;;;;0.80;0.80;;;;;;;;;;5036342;28;92053;-54
2022/11/03 06:35:17;;;;;;;0.70;0.67;;;;;;;;;;5023319;28;94064;-55
2022/11/03 06:37:47;;;;;;;1.50;1.40;;;;;;;;;;5037866;28;92356;-55
2022/11/03 06:40:34;;;;;;;1.63;0.90;;;;;;;;;;5038104;28;92141;-55
2022/11/03 06:43:10;;;;;;;2.43;1.33;;;;;;;;;;5036898;28;92089;-55
2022/11/03 06:45:38;;;;;;;2.63;1.17;;;;;;;;;;5036982;28;92307;-55
2022/11/03 06:48:08;;;;;;;1.03;0.70;;;;;;;;;;5036670;28;93960;-55
2022/11/03 06:50:37;;;;;;;1.33;0.80;;;;;;;;;;5041451;28;92487;-55
2022/11/03 06:53:13;;;;;;;0.90;0.70;;;;;;;;;;5040351;28;91344;-54
2022/11/03 06:55:41;;;;;;;1.43;0.83;;;;;;;;;;5040858;28;93098;-54
2022/11/03 06:58:13;;;;;;;0.70;0.70;;;;;;;;;;5034100;28;92487;-54
2022/11/03 07:00:42;;;;;;;1.67;0.80;;;;;;;;;;5021285;28;93017;-55
2022/11/03 07:03:19;;;;;;;1.63;1.00;;;;;;;;;;5035069;28;92152;-54
2022/11/03 07:05:47;;;;;;;5.37;0.60;;;;;;;;;;5041543;28;94418;-55
2022/11/03 07:08:20;;;;;;;0.50;0.50;;;;;;;;;;5040752;28;92957;-55
2022/11/03 07:10:48;;;;;;;0.77;0.63;;;;;;;;;;5029222;28;92129;-54
2022/11/03 07:13:18;;;;;;;2.63;1.13;;;;;;;;;;5021434;28;92106;-55
2022/11/03 07:15:47;;;;;;;0.40;0.40;;;;;;;;;;5026503;28;93816;-55
2022/11/03 07:18:17;;;;;;;1.47;0.73;;;;;;;;;;5041366;28;93392;-55
2022/11/03 07:20:45;;;;;;;0.83;0.60;;;;;;;;;;5040343;28;92126;-55
2022/11/03 07:23:14;;;;;;;1.30;0.87;;;;;;;;;;5028618;28;92089;-55
2022/11/03 07:25:44;;;;;;;1.53;0.97;;;;;;;;;;5024402;28;93160;-55
2022/11/03 07:28:12;;;;;;;1.00;0.90;;;;;;;;;;5020293;28;94779;-55
2022/11/03 07:30:41;;;;;;;1.00;0.70;;;;;;;;;;5027419;28;92138;-55
2022/11/03 07:33:13;;;;;;;1.13;0.80;;;;;;;;;;5038449;28;92204;-55
2022/11/03 07:35:41;;;;;;;1.30;0.77;;;;;;;;;;5024502;28;93335;-55
2022/11/03 07:38:30;;;;;;;0.50;0.50;;;;;;;;;;5034808;28;92007;-55
2022/11/03 07:40:59;;;;;;;1.07;0.80;;;;;;;;;;5039367;28;93568;-54
2022/11/03 07:43:29;;;;;;;0.70;0.63;;;;;;;;;;5040619;28;91422;-55
2022/11/03 07:45:58;;;;;;;1.00;0.80;;;;;;;;;;5040185;28;92929;-55
2022/11/03 07:48:27;;;;;;;3.60;0.70;;;;;;;;;;5039918;28;92619;-55
2022/11/03 07:50:55;;;;;;;2.87;1.37;;;;;;;;;;5027084;28;92980;-55
2022/11/03 07:53:26;;;;;;;2.00;0.70;;;;;;;;;;5021659;28;92135;-55
2022/11/03 07:55:55;;;;;;;1.03;0.63;;;;;;;;;;5032621;28;93260;-54
2022/11/03 07:58:26;;;;;;;1.00;0.80;;;;;;;;;;5039745;28;93834;-55
2022/11/03 08:00:57;;;;;;;3.63;0.60;;;;;;;;;;5027102;28;92115;-55
2022/11/03 08:03:27;;;;;;;1.30;0.63;;;;;;;;;;5032240;28;92184;-55
2022/11/03 08:05:55;;;;;;;0.80;0.63;;;;;;;;;;5039656;28;93930;-55
2022/11/03 08:08:24;;;;;;;0.67;0.67;;;;;;;;;;5039730;28;93723;-55
2022/11/03 08:10:52;;;;;;;0.73;0.70;;;;;;;;;;5040285;28;92032;-55
2022/11/03 08:13:20;;;;;;;1.13;0.63;;;;;;;;;;5039524;28;92723;-55
2022/11/03 08:15:50;;;;;;;2.10;0.90;;;;;;;;;;5038978;28;93859;-55
2022/11/03 08:18:18;;;;;;;0.67;0.60;;;;;;;;;;5039315;28;93706;-54
2022/11/03 08:20:47;;;;;;;1.27;0.80;;;;;;;;;;5040098;28;92110;-55
2022/11/03 08:23:15;;;;;;;1.90;1.50;;;;;;;;;;5040256;28;92141;-55
2022/11/03 08:25:53;;;;;;;0.97;0.50;;;;;;;;;;5039570;28;93802;-55
2022/11/03 08:28:21;;;;;;;0.60;0.60;;;;;;;;;;5033927;28;92829;-54
2022/11/03 08:30:51;;;;;;;1.33;0.90;;;;;;;;;;5034389;28;92107;-55
2022/11/03 08:33:19;;;;;;;4.47;0.87;;;;;;;;;;5040800;28;91357;-55
2022/11/03 08:35:48;;;;;;;1.80;0.60;;;;;;;;;;5038977;28;93100;-55
2022/11/03 08:38:16;;;;;;;1.47;1.07;;;;;;;;;;5039421;28;93778;-55
2022/11/03 08:40:44;;;;;;;1.00;0.70;;;;;;;;;;5040260;28;93721;-55
2022/11/03 08:43:16;;;;;;;1.20;0.63;;;;;;;;;;5039953;28;92099;-55
2022/11/03 08:45:44;;;;;;;0.93;0.77;;;;;;;;;;5032269;28;93273;-54
2022/11/03 08:48:14;;;;;;;3.90;0.60;;;;;;;;;;5017990;28;93813;-54
2022/11/03 08:50:43;;;;;;;0.57;0.40;;;;;;;;;;5020379;28;92140;-54
2022/11/03 08:53:12;;;;;;;0.50;0.50;;;;;;;;;;5054475;27;92279;-55
2022/11/03 08:55:40;;;;;;;0.87;0.60;;;;;;;;;;5040780;27;93914;-54
2022/11/03 08:58:08;;;;;;;3.47;0.50;;;;;;;;;;5039960;28;93577;-54
2022/11/03 09:00:37;;;;;;;0.83;0.60;;;;;;;;;;5039808;28;92111;-54
2022/11/03 09:03:08;;;;;;;0.63;0.63;;;;;;;;;;5037286;28;92078;-54
2022/11/03 09:05:38;;;;;;;0.50;0.50;;;;;;;;;;5038482;28;93989;-54
2022/11/03 09:08:06;;;;;;;1.83;1.00;;;;;;;;;;5039196;28;93705;-55
2022/11/03 09:10:55;;;;;;;2.17;1.20;;;;;;;;;;5039085;28;92091;-54
2022/11/03 09:13:23;;;;;;;3.30;0.80;;;;;;;;;;5038775;28;92089;-54
2022/11/03 09:15:51;;;;;;;1.73;0.80;;;;;;;;;;5039647;28;96839;-55
2022/11/03 09:18:21;;;;;;;0.37;0.37;;;;;;;;;;5038763;28;93838;-54
2022/11/03 09:20:50;;;;;;;5.20;0.97;;;;;;;;;;5039584;28;91954;-54
2022/11/03 09:23:19;;;;;;;0.90;0.83;;;;;;;;;;5035992;28;91329;-54
2022/11/03 09:25:47;;;;;;;1.50;0.50;;;;;;;;;;5036872;28;94325;-55
2022/11/03 09:28:15;;;;;;;0.87;0.70;;;;;;;;;;5038620;28;93581;-55
2022/11/03 09:30:44;;;;;;;2.23;0.60;;;;;;;;;;5038796;28;93116;-55
2022/11/03 09:33:12;;;;;;;1.90;0.73;;;;;;;;;;5035717;28;92062;-54
2022/11/03 09:35:40;;;;;;;0.60;0.40;;;;;;;;;;5018878;28;94207;-54
2022/11/03 09:38:10;;;;;;;2.37;0.77;;;;;;;;;;5018447;28;93877;-55
2022/11/03 09:40:38;;;;;;;0.50;0.50;;;;;;;;;;5036990;28;92175;-54
2022/11/03 09:43:07;;;;;;;0.40;0.40;;;;;;;;;;5038726;28;92121;-54
2022/11/03 09:45:35;;;;;;;0.50;0.50;;;;;;;;;;5038019;28;93199;-55
2022/11/03 09:48:04;;;;;;;0.53;0.53;;;;;;;;;;5038451;28;92688;-55
2022/11/03 09:50:33;;;;;;;1.43;1.33;;;;;;;;;;5038535;28;92197;-55
2022/11/03 09:53:01;;;;;;;1.67;0.47;;;;;;;;;;5038910;28;92724;-54
2022/11/03 09:55:31;;;;;;;3.93;0.70;;;;;;;;;;5037283;28;94209;-55
2022/11/03 09:58:00;;;;;;;1.77;0.60;;;;;;;;;;5038522;28;93728;-55
2022/11/03 10:00:28;;;;;;;0.93;0.50;;;;;;;;;;5038796;28;92076;-54
2022/11/03 10:02:57;;;;;;;0.60;0.60;;;;;;;;;;5039218;28;92638;-54
2022/11/03 10:05:25;;;;;;;1.23;0.70;;;;;;;;;;5038270;28;94132;-54
2022/11/03 10:07:54;;;;;;;0.63;0.63;;;;;;;;;;5038453;28;93839;-54
2022/11/03 10:10:23;;;;;;;0.70;0.67;;;;;;;;;;5028239;28;91978;-54
2022/11/03 10:12:53;;;;;;;0.30;0.30;;;;;;;;;;5038412;28;91356;-54
2022/11/03 10:15:21;;;;;;;0.83;0.60;;;;;;;;;;5038021;28;93080;-54
2022/11/03 10:17:50;;;;;;;1.07;0.50;;;;;;;;;;5037186;28;92795;-55
2022/11/03 10:20:19;;;;;;;1.33;0.43;;;;;;;;;;5037964;28;93018;-54
2022/11/03 10:22:47;;;;;;;3.20;0.63;;;;;;;;;;5038568;28;92057;-54
2022/11/03 10:25:28;;;;;;;4.10;0.40;;;;;;;;;;5037672;27;94061;-55
2022/11/03 10:28:13;;;;;;;1.30;0.60;;;;;;;;;;5037455;28;92919;-55
2022/11/03 10:30:49;;;;;;;0.83;0.63;;;;;;;;;;5037243;28;92379;-54
2022/11/03 10:33:37;;;;;;;0.83;0.60;;;;;;;;;;5037408;28;92218;-55
2022/11/03 10:36:06;;;;;;;0.60;0.53;;;;;;;;;;5038189;28;93881;-55
2022/11/03 10:38:35;;;;;;;0.70;0.63;;;;;;;;;;5037734;28;93062;-55
2022/11/03 10:41:12;;;;;;;1.50;0.47;;;;;;;;;;5037976;28;92169;-55
2022/11/03 10:43:42;;;;;;;0.33;0.33;;;;;;;;;;5037545;28;92115;-55
2022/11/03 10:46:15;;;;;;;0.40;0.40;;;;;;;;;;5036803;28;94080;-54
2022/11/03 10:49:05;;;;;;;0.20;0.20;;;;;;;;;;5036883;28;93333;-55
2022/11/03 10:51:38;;;;;;;1.00;0.27;;;;;;;;;;5038257;28;92614;-55
2022/11/03 10:54:06;;;;;;;1.50;0.40;;;;;;;;;;5037608;28;92002;-55
2022/11/03 10:56:34;;;;;;;0.43;0.40;;;;;;;;;;5038058;28;92881;-55
2022/11/03 10:59:04;;;;;;;2.63;0.70;;;;;;;;;;5037887;28;92610;-54
2022/11/03 11:01:33;;;;;;;0.67;0.60;;;;;;;;;;5037475;28;92232;-55
2022/11/03 11:04:01;;;;;;;2.30;0.63;;;;;;;;;;5037696;28;91388;-55
2022/11/03 11:06:30;;;;;;;0.30;0.30;;;;;;;;;;5028392;28;93139;-55
2022/11/03 11:09:01;;;;;;;0.47;0.43;;;;;;;;;;5029827;28;92637;-55
2022/11/03 11:11:29;;;;;;;0.83;0.57;;;;;;;;;;5017462;28;93114;-55
2022/11/03 11:14:16;;;;;;;0.40;0.40;;;;;;;;;;5022742;28;92128;-55
2022/11/03 11:16:49;;;;;;;0.73;0.60;;;;;;;;;;5021247;28;92030;-56
2022/11/03 11:19:17;;;;;;;0.50;0.50;;;;;;;;;;5017133;28;92701;-55
2022/11/03 11:22:10;;;;;;;0.63;0.43;;;;;;;;;;5017689;28;92083;-55
2022/11/03 11:24:57;;;;;;;1.87;0.53;;;;;;;;;;5017259;28;92077;-56
2022/11/03 11:27:52;;;;;;;1.67;0.70;;;;;;;;;;5018064;28;92205;-55
2022/11/03 11:30:43;;;;;;;0.50;0.50;;;;;;;;;;4973347;28;94255;-55
2022/11/03 11:33:22;;;;;;;0.87;0.60;;;;;;;;;;5031427;28;92096;-56
2022/11/03 11:36:05;;;;;;;0.60;0.47;;;;;;;;;;5036295;27;92075;-57
2022/11/03 11:39:06;;;;;;;0.30;0.30;;;;;;;;;;5028543;28;95572;-55
2022/11/03 11:41:53;;;;;;;2.27;0.40;;;;;;;;;;5027685;28;94983;-54
2022/11/03 11:44:40;;;;;;;1.43;0.50;;;;;;;;;;5038446;28;92193;-54
2022/11/03 11:47:19;;;;;;;0.50;0.40;;;;;;;;;;5039212;28;91979;-55
2022/11/03 11:49:49;;;;;;;1.07;0.43;;;;;;;;;;5028663;28;94011;-56
2022/11/03 11:52:17;;;;;;;2.53;0.67;;;;;;;;;;5039067;28;93695;-56
2022/11/03 11:54:46;;;;;;;0.37;0.27;;;;;;;;;;5040227;28;92065;-56
2022/11/03 11:57:18;;;;;;;2.00;0.53;;;;;;;;;;5040280;28;91359;-56
2022/11/03 11:59:46;;;;;;;0.83;0.60;;;;;;;;;;5040388;28;92772;-56
2022/11/03 12:02:16;;;;;;;0.80;0.50;;;;;;;;;;5039978;28;92952;-56
2022/11/03 12:04:46;;;;;;;1.37;0.40;;;;;;;;;;5040128;28;93026;-56
2022/11/03 12:07:16;;;;;;;1.77;0.60;;;;;;;;;;5040402;28;92115;-56
2022/11/03 12:09:44;;;;;;;1.30;0.60;;;;;;;;;;5039628;28;92040;-55
2022/11/03 12:12:12;;;;;;;2.73;0.70;;;;;;;;;;5037533;28;92543;-55
2022/11/03 12:14:41;;;;;;;0.37;0.37;;;;;;;;;;5039003;28;92148;-56
2022/11/03 12:17:28;;;;;;;2.10;0.50;;;;;;;;;;5038650;28;92475;-56
2022/11/03 12:19:56;;;;;;;1.43;0.57;;;;;;;;;;5040036;28;93285;-57
2022/11/03 12:22:41;;;;;;;0.63;0.40;;;;;;;;;;5040338;28;92988;-56
2022/11/03 12:25:27;;;;;;;0.30;0.30;;;;;;;;;;5040122;28;92264;-56
2022/11/03 12:27:56;;;;;;;0.50;0.50;;;;;;;;;;5038746;28;92134;-56
2022/11/03 12:30:24;;;;;;;0.73;0.47;;;;;;;;;;5039041;28;95073;-56
2022/11/03 12:32:52;;;;;;;2.67;0.40;;;;;;;;;;5039939;28;93493;-56
2022/11/03 12:35:21;;;;;;;0.83;0.40;;;;;;;;;;5040392;28;92099;-56
2022/11/03 12:37:50;;;;;;;0.67;0.43;;;;;;;;;;5040071;28;92267;-56
2022/11/03 12:40:19;;;;;;;0.50;0.50;;;;;;;;;;5039616;28;92120;-56
2022/11/03 12:42:47;;;;;;;1.13;0.67;;;;;;;;;;5038737;28;93974;-55
2022/11/03 12:45:15;;;;;;;0.33;0.33;;;;;;;;;;5040146;28;92099;-56
2022/11/03 12:47:44;;;;;;;0.37;0.37;;;;;;;;;;5038737;27;91441;-55
2022/11/03 12:50:12;;;;;;;1.40;0.50;;;;;;;;;;5039083;28;93148;-57
2022/11/03 12:52:40;;;;;;;0.87;0.60;;;;;;;;;;5030039;28;93137;-56
2022/11/03 12:55:11;;;;;;;0.43;0.40;;;;;;;;;;5038861;28;93192;-56
2022/11/03 12:57:39;;;;;;;0.67;0.50;;;;;;;;;;5038415;28;92129;-56
2022/11/03 13:00:08;;;;;;;0.43;0.43;;;;;;;;;;5038041;28;93096;-57
2022/11/03 13:02:37;;;;;;;0.63;0.40;;;;;;;;;;5035941;28;93935;-56
2022/11/03 13:05:06;;;;;;;0.50;0.50;;;;;;;;;;5018893;28;92132;-56
2022/11/03 13:07:35;;;;;;;0.40;0.37;;;;;;;;;;5018775;28;92217;-56
2022/11/03 13:10:03;;;;;;;1.37;0.50;;;;;;;;;;5019052;28;93440;-56
2022/11/03 13:12:35;;;;;;;0.50;0.50;;;;;;;;;;5019132;28;93034;-56
2022/11/03 13:15:04;;;;;;;0.43;0.43;;;;;;;;;;5019351;28;92117;-56
2022/11/03 13:17:32;;;;;;;0.37;0.37;;;;;;;;;;5019168;28;92037;-56
2022/11/03 13:20:21;;;;;;;0.73;0.53;;;;;;;;;;5018378;28;93791;-56
2022/11/03 13:22:49;;;;;;;2.23;0.70;;;;;;;;;;5018957;28;93586;-56
2022/11/03 13:25:18;;;;;;;1.03;0.73;;;;;;;;;;5019484;28;92141;-56
2022/11/03 13:27:52;;;;;;;0.97;0.70;;;;;;;;;;5019454;28;92017;-56
2022/11/03 13:30:21;;;;;;;1.20;0.33;;;;;;;;;;5018690;28;93173;-56
2022/11/03 13:32:49;;;;;;;1.37;0.60;;;;;;;;;;5018625;28;92945;-57
2022/11/03 13:35:17;;;;;;;0.77;0.30;;;;;;;;;;5019193;28;91999;-57
2022/11/03 13:37:46;;;;;;;2.27;0.47;;;;;;;;;;5019327;28;91427;-56
2022/11/03 13:40:14;;;;;;;1.57;0.60;;;;;;;;;;5018986;28;93139;-56
2022/11/03 13:43:04;;;;;;;0.93;0.67;;;;;;;;;;5018535;28;92405;-56
2022/11/03 13:45:33;;;;;;;0.37;0.37;;;;;;;;;;5018585;28;92968;-56
2022/11/03 13:48:01;;;;;;;0.53;0.40;;;;;;;;;;5018062;28;92388;-56
2022/11/03 13:50:51;;;;;;;1.37;0.63;;;;;;;;;;5018104;28;92772;-56
2022/11/03 13:53:20;;;;;;;0.30;0.27;;;;;;;;;;5017961;28;92752;-56
2022/11/03 13:56:08;;;;;;;1.83;0.47;;;;;;;;;;5018753;28;92107;-56
2022/11/03 13:58:48;;;;;;;0.57;0.43;;;;;;;;;;5017804;28;92162;-56
2022/11/03 14:01:36;;;;;;;0.40;0.40;;;;;;;;;;5018365;28;92735;-56
2022/11/03 14:04:06;;;;;;;0.70;0.40;;;;;;;;;;5018680;28;94021;-55
2022/11/03 14:06:54;;;;;;;3.33;0.73;;;;;;;;;;5018264;28;92092;-55
2022/11/03 14:09:22;;;;;;;0.90;0.50;;;;;;;;;;5033262;28;92153;-56
2022/11/03 14:14:38;;;;;;;1.33;0.60;;;;;;;;;;5023966;28;94818;-56
2022/11/03 14:17:07;;;;;;;0.77;0.40;;;;;;;;;;5038017;28;92173;-55
2022/11/03 14:19:35;;;;;;;2.37;1.13;;;;;;;;;;5037107;28;92138;-56
2022/11/03 14:22:13;;;;;;;0.40;0.20;;;;;;;;;;5023108;28;93582;-57
2022/11/03 14:24:41;;;;;;;1.27;0.87;;;;;;;;;;5030952;28;92787;-56
2022/11/03 14:27:09;;;;;;;0.57;0.50;;;;;;;;;;5038502;28;92102;-56
2022/11/03 14:29:39;;;;;;;0.40;0.40;;;;;;;;;;5037568;28;91399;-58
2022/11/03 14:32:07;;;;;;;0.53;0.50;;;;;;;;;;5033881;28;93061;-56
2022/11/03 14:34:37;;;;;;;1.20;0.50;;;;;;;;;;5037770;28;92800;-56
2022/11/03 14:37:07;;;;;;;0.50;0.50;;;;;;;;;;5037409;28;93110;-57
2022/11/03 14:39:36;;;;;;;0.40;0.40;;;;;;;;;;5018001;28;92275;-56
2022/11/03 14:42:03;;;;;;;0.63;0.50;;;;;;;;;;5023555;28;94024;-57
2022/11/03 14:44:32;;;;;;;2.07;0.50;;;;;;;;;;5037539;28;93874;-57
2022/11/03 14:47:02;;;;;;;0.40;0.40;;;;;;;;;;5034486;28;93587;-57
2022/11/03 14:49:31;;;;;;;0.47;0.47;;;;;;;;;;5038500;27;92921;-56
2022/11/03 14:52:00;;;;;;;0.43;0.40;;;;;;;;;;5058061;27;92602;-56
2022/11/03 14:54:29;;;;;;;0.53;0.43;;;;;;;;;;5057638;27;91679;-57
2022/11/03 14:56:57;;;;;;;0.53;0.30;;;;;;;;;;5058397;27;92084;-57
2022/11/03 14:59:26;;;;;;;2.27;0.60;;;;;;;;;;5058610;27;92235;-57
2022/11/03 15:01:54;;;;;;;0.97;0.60;;;;;;;;;;5057199;27;94194;-57
2022/11/03 15:04:24;;;;;;;1.00;0.63;;;;;;;;;;5057897;27;92406;-56
2022/11/03 15:06:53;;;;;;;1.97;0.80;;;;;;;;;;5058512;27;92136;-57
2022/11/03 15:09:21;;;;;;;1.03;0.97;;;;;;;;;;5058064;27;93132;-57
2022/11/03 15:11:49;;;;;;;0.40;0.30;;;;;;;;;;5060262;27;94075;-56
2022/11/03 15:14:18;;;;;;;1.00;0.90;;;;;;;;;;5060829;27;92937;-56
2022/11/03 15:16:46;;;;;;;2.20;0.50;;;;;;;;;;5040436;27;92078;-57
2022/11/03 15:19:15;;;;;;;1.80;0.93;;;;;;;;;;5021305;28;91300;-57
2022/11/03 15:21:44;;;;;;;0.50;0.50;;;;;;;;;;5020263;28;94313;-57